Main page
METAR-TAF:

METAR-TAF

Airports :

Shanghai-Pudong, China

Shanghai Pudong International Airport

latitude: 31-07N, longitude: 121-46E, elevation: 4 m

Current weather observation

The report was made 10 minutes ago, at 13:00 UTC
Wind 6 kt from the Northeast
Temperature 6°C
Humidity 75%
Pressure 1026 hPa
Visibility 10 km or more
no clouds below 1500 m and no cumulonimbus

METAR: ZSPD 211300Z 04003MPS CAVOK 06/02 Q1026 NOSIG

Time: 21:10 (13:10 UTC)

Forecast

The report was made 27 hours and 45 minutes ago, at 09:25 UTC
Forecast valid from 20 at 12 UTC to 21 at 12 UTC
Wind 12 kt from the Northeast
Visibility: 3500 m
Broken clouds at a height of 1000 ft
Overcast at a height of 4000 ft
light rain, mist
Temporary
from 20 at 12 UTC to 20 at 18 UTC
Visibility: 2000 m
Broken clouds at a height of 400 ft
Few clouds at a height of 3000 ft, Cumulonimbus.
Overcast at a height of 3300 ft
rain showers

TAF: ZSPD 200925Z 2012/2112 04006MPS 3500 -RA BR BKN010 OVC040 TX08/2106Z TN05/2021Z TEMPO 2012/2018 2000 SHRA BKN004 FEW030CB OVC033

Weather observations and forecasts of more than 4000 airports (METAR and TAF reports).

The available stations are represented by yellow and red dots on the map.

Hover mouse over dot to see the name of the station.

Then click to see weather observations and forecasts.

To change the map : click on the green buttons with a black cross to zoom in, on the green button with a dash to zoom out, or on the green arrows for adjacent maps.


METAR-TAF: